Easthampton, Massachusetts
Current Conditions -  °F | °C
As of 8:08 PM on Thursday 27 Nov 2014 (Local Time) from KBAF Reporting Station
Light Snow Light Snow  
Wind Chill: 25°   Ceiling: 1500
Heat Index: 31°   Visibility: 3mi
Dew Point: 28°   Wind: 6mph
Humidity: 89%   Direction: 320°NW
Pressure: 30.01"   Gusts: NA
Location:  42.27°N, 72.67°W
Report Text: KBAF 280108Z 32005KT 3SM -SN BR FEW008 OVC015 M01/M02 A3001 RMK AO2 P0000 T10061022
Loading
Personal Weather Stations






























Interactive Weather Map New forecast layout! Learn more

10-Day Weather Forecast

Advertisements
Track Severe Weather on mobile